createdAt,value
2023-05-22T00:02:05.132Z,13.52
2023-05-22T00:04:32.418Z,15.02
2023-05-22T00:06:59.302Z,15.02
2023-05-22T00:09:26.394Z,12.90
2023-05-22T00:11:53.339Z,15.38
2023-05-22T00:14:20.108Z,14.80
2023-05-22T00:16:48.445Z,13.80
2023-05-22T00:19:17.305Z,14.52
2023-05-22T00:21:44.480Z,13.88
2023-05-22T00:24:11.444Z,15.60
2023-05-22T00:26:38.193Z,14.75
2023-05-22T00:29:07.994Z,13.93
2023-05-22T00:31:34.751Z,15.25
2023-05-22T00:34:01.621Z,14.23
2023-05-22T00:36:28.444Z,14.32
2023-05-22T00:38:55.136Z,15.82
2023-05-22T00:41:22.271Z,14.15
2023-05-22T00:43:50.939Z,14.63
2023-05-22T00:46:21.507Z,14.10
2023-05-22T00:48:48.959Z,14.82
2023-05-22T00:51:16.041Z,14.05
2023-05-22T00:53:44.281Z,14.38
2023-05-22T00:56:12.332Z,13.88
2023-05-22T00:58:39.264Z,14.80
2023-05-22T01:01:09.631Z,15.27
2023-05-22T01:03:42.389Z,13.23
2023-05-22T01:06:09.216Z,15.95
2023-05-22T01:08:35.960Z,13.20
2023-05-22T01:11:10.419Z,14.55
2023-05-22T01:13:53.272Z,15.38
2023-05-22T01:16:46.713Z,13.63
2023-05-22T01:19:22.692Z,15.85
2023-05-22T01:22:11.640Z,14.95
2023-05-22T01:24:53.142Z,14.10
2023-05-22T01:27:48.732Z,13.00
2023-05-22T01:31:00.270Z,14.13
2023-05-22T01:33:31.977Z,13.88
2023-05-22T01:36:01.386Z,12.85
2023-05-22T01:38:28.878Z,15.60
2023-05-22T01:40:57.582Z,13.77
2023-05-22T01:43:24.504Z,13.77
2023-05-22T01:45:51.537Z,14.23
2023-05-22T01:48:18.296Z,16.55
2023-05-22T01:50:48.503Z,13.73
2023-05-22T01:53:33.550Z,13.52
2023-05-22T01:56:05.194Z,14.77
2023-05-22T01:58:53.666Z,15.45
2023-05-22T02:01:24.243Z,13.10
2023-05-22T02:03:56.652Z,15.35
2023-05-22T02:06:25.902Z,13.25
2023-05-22T02:08:54.139Z,16.77
2023-05-22T02:11:22.913Z,12.30
2023-05-22T02:13:50.173Z,14.30
2023-05-22T02:16:18.056Z,12.55
2023-05-22T02:18:45.415Z,14.75
2023-05-22T02:21:12.148Z,16.13
2023-05-22T02:23:38.883Z,13.43
2023-05-22T02:26:06.020Z,14.98
2023-05-22T02:28:33.332Z,14.07
2023-05-22T02:31:00.067Z,12.88
2023-05-22T02:33:27.001Z,13.93
2023-05-22T02:35:53.823Z,13.52
2023-05-22T02:38:21.482Z,13.80
2023-05-22T02:40:49.672Z,14.68
2023-05-22T02:43:16.427Z,14.32
2023-05-22T02:45:43.177Z,15.25
2023-05-22T02:48:09.848Z,15.23
2023-05-22T02:50:36.632Z,15.00
2023-05-22T02:53:03.802Z,15.68
2023-05-22T02:55:30.513Z,14.15
2023-05-22T02:57:57.236Z,14.25
2023-05-22T03:00:24.013Z,14.48
2023-05-22T03:02:50.925Z,13.80
2023-05-22T03:05:18.252Z,14.55
2023-05-22T03:07:48.070Z,15.05
2023-05-22T03:10:15.543Z,13.05
2023-05-22T03:12:42.264Z,13.88
2023-05-22T03:15:09.625Z,13.20
2023-05-22T03:17:36.454Z,14.32
2023-05-22T03:20:05.284Z,14.73
2023-05-22T03:22:32.119Z,14.85
2023-05-22T03:24:58.849Z,14.20
2023-05-22T03:27:25.620Z,14.48
2023-05-22T03:29:52.663Z,14.00
2023-05-22T03:32:19.371Z,14.27
2023-05-22T03:34:46.143Z,12.75
2023-05-22T03:37:12.864Z,13.18
2023-05-22T03:39:39.892Z,13.57
2023-05-22T03:42:06.797Z,14.18
2023-05-22T03:44:33.545Z,14.48
2023-05-22T03:47:00.315Z,13.80
2023-05-22T03:49:27.095Z,13.98
2023-05-22T03:51:53.782Z,16.05
2023-05-22T03:54:21.034Z,16.20
2023-05-22T03:56:47.879Z,17.40
2023-05-22T03:59:14.669Z,16.67
2023-05-22T04:01:41.335Z,14.18
2023-05-22T04:04:09.556Z,15.88
2023-05-22T04:06:43.154Z,16.23
2023-05-22T04:09:13.810Z,13.10
2023-05-22T04:11:40.577Z,14.77
2023-05-22T04:14:07.371Z,14.10
2023-05-22T04:16:34.315Z,15.05
2023-05-22T04:19:03.290Z,12.65
2023-05-22T04:21:34.151Z,13.93
2023-05-22T04:24:01.777Z,13.75
2023-05-22T04:26:33.031Z,13.52
2023-05-22T04:28:59.784Z,14.20
2023-05-22T04:31:26.554Z,14.95
2023-05-22T04:33:54.584Z,13.75
2023-05-22T04:36:26.605Z,13.45
2023-05-22T04:38:54.115Z,14.95
2023-05-22T04:41:22.683Z,13.65
2023-05-22T04:43:49.807Z,13.32
2023-05-22T04:46:16.546Z,13.32
2023-05-22T04:48:43.274Z,15.57
2023-05-22T04:51:09.992Z,15.88
2023-05-22T04:53:38.719Z,14.68
2023-05-22T04:56:06.414Z,14.02
2023-05-22T04:58:33.427Z,14.05
2023-05-22T05:01:00.238Z,14.85
2023-05-22T05:03:27.293Z,13.55
2023-05-22T05:05:54.200Z,14.27
2023-05-22T05:08:20.919Z,17.35
2023-05-22T05:10:47.669Z,13.40
2023-05-22T05:13:14.406Z,13.20
2023-05-22T05:15:41.104Z,12.63
2023-05-22T05:18:07.837Z,14.85
2023-05-22T05:20:34.597Z,13.85
2023-05-22T05:23:01.372Z,14.45
2023-05-22T05:25:28.040Z,12.48
2023-05-22T05:27:54.743Z,15.73
2023-05-22T05:30:21.419Z,14.70
2023-05-22T05:32:48.213Z,14.32
2023-05-22T05:35:15.071Z,12.82
2023-05-22T05:37:41.843Z,13.40
2023-05-22T05:40:09.185Z,14.57
2023-05-22T05:42:35.987Z,15.07
2023-05-22T05:45:02.688Z,12.50
2023-05-22T05:47:29.730Z,15.13
2023-05-22T05:49:56.504Z,14.07
2023-05-22T05:52:24.743Z,14.88
2023-05-22T05:54:51.918Z,15.00
2023-05-22T05:57:18.637Z,13.98
2023-05-22T05:59:45.452Z,13.55
2023-05-22T06:02:12.411Z,14.40
2023-05-22T06:04:39.258Z,13.13
2023-05-22T06:07:06.414Z,14.98
2023-05-22T06:09:33.115Z,13.15
2023-05-22T06:11:59.923Z,13.07
2023-05-22T06:14:26.658Z,14.95
2023-05-22T06:16:53.470Z,13.15
2023-05-22T06:19:20.273Z,12.63
2023-05-22T06:21:47.102Z,14.15
2023-05-22T06:24:13.831Z,13.82
2023-05-22T06:26:40.654Z,12.80
2023-05-22T06:29:07.468Z,14.93
2023-05-22T06:31:35.413Z,12.60
2023-05-22T06:34:02.353Z,13.60
2023-05-22T06:36:29.291Z,13.15
2023-05-22T06:38:56.200Z,13.57
2023-05-22T06:41:22.945Z,16.10
2023-05-22T06:43:49.691Z,11.43
2023-05-22T06:46:16.516Z,13.02
2023-05-22T06:48:43.442Z,13.15
2023-05-22T06:51:11.637Z,13.07
2023-05-22T06:53:38.928Z,12.85
2023-05-22T06:56:06.155Z,13.75
2023-05-22T06:58:32.888Z,13.75
2023-05-22T07:00:59.710Z,13.13
2023-05-22T07:03:27.296Z,15.35
2023-05-22T07:05:56.830Z,13.98
2023-05-22T07:08:24.288Z,12.95
2023-05-22T07:10:51.669Z,15.85
2023-05-22T07:13:18.445Z,12.95
2023-05-22T07:15:46.647Z,12.10
2023-05-22T07:18:13.642Z,13.80
2023-05-22T07:20:40.749Z,13.88
2023-05-22T07:23:08.868Z,11.75
2023-05-22T07:25:35.941Z,13.70
2023-05-22T07:28:08.541Z,14.23
2023-05-22T07:30:39.459Z,12.77
2023-05-22T07:33:06.488Z,12.20
2023-05-22T07:35:33.515Z,14.73
2023-05-22T07:38:00.439Z,14.50
2023-05-22T07:40:27.130Z,14.35
2023-05-22T07:42:53.922Z,13.15
2023-05-22T07:45:20.644Z,13.90
2023-05-22T07:47:47.442Z,13.45
2023-05-22T07:50:14.144Z,12.95
2023-05-22T07:52:41.018Z,16.42
2023-05-22T07:55:08.389Z,12.07
2023-05-22T07:57:36.237Z,14.45
2023-05-22T08:00:13.919Z,12.85
2023-05-22T08:02:41.810Z,15.20
2023-05-22T08:05:09.797Z,14.55
2023-05-22T08:07:37.078Z,14.82
2023-05-22T08:10:08.457Z,13.18
2023-05-22T08:12:35.328Z,13.98
2023-05-22T08:15:02.160Z,14.43
2023-05-22T08:17:28.863Z,12.93
2023-05-22T08:19:55.908Z,12.95
2023-05-22T08:22:22.737Z,12.27
2023-05-22T08:24:49.496Z,11.73
2023-05-22T08:27:16.307Z,13.02
2023-05-22T08:29:43.171Z,12.10
2023-05-22T08:32:09.932Z,12.07
2023-05-22T08:34:36.815Z,13.15
2023-05-22T08:37:04.716Z,11.32
2023-05-22T08:39:31.467Z,13.35
2023-05-22T08:41:59.282Z,14.73
2023-05-22T08:44:26.093Z,14.48
2023-05-22T08:46:56.561Z,12.32
2023-05-22T08:49:24.500Z,14.25
2023-05-22T08:51:56.718Z,10.32
2023-05-22T08:54:26.308Z,13.52
2023-05-22T08:56:57.265Z,11.10
2023-05-22T08:59:24.953Z,11.82
2023-05-22T09:01:52.508Z,11.85
2023-05-22T09:04:23.670Z,12.25
2023-05-22T09:06:50.842Z,11.35
2023-05-22T09:09:17.924Z,12.27
2023-05-22T09:11:44.684Z,14.80
2023-05-22T09:14:12.048Z,10.02
2023-05-22T09:17:05.289Z,12.85
2023-05-22T09:19:32.174Z,15.48
2023-05-22T09:22:04.237Z,13.68
2023-05-22T09:24:31.369Z,13.15
2023-05-22T09:27:03.588Z,13.02
2023-05-22T09:29:30.400Z,11.43
2023-05-22T09:31:59.071Z,13.55
2023-05-22T09:34:32.852Z,10.77
2023-05-22T09:37:05.711Z,10.93
2023-05-22T09:39:40.854Z,11.18
2023-05-22T09:42:10.124Z,12.07
2023-05-22T09:44:37.175Z,11.43
2023-05-22T09:47:06.077Z,10.88
2023-05-22T09:49:37.610Z,11.40
2023-05-22T09:52:07.847Z,10.68
2023-05-22T09:54:35.447Z,10.70
2023-05-22T09:57:07.002Z,12.23
2023-05-22T09:59:35.112Z,11.98
2023-05-22T10:02:02.317Z,12.30
2023-05-22T10:04:33.662Z,11.82
2023-05-22T10:07:03.720Z,11.38
2023-05-22T10:09:34.700Z,11.63
2023-05-22T10:12:08.039Z,11.07
2023-05-22T10:14:36.404Z,10.30
2023-05-22T10:17:06.494Z,10.82
2023-05-22T10:19:33.664Z,10.85
2023-05-22T10:22:01.459Z,10.00
2023-05-22T10:24:29.417Z,12.13
2023-05-22T10:26:57.193Z,11.23
2023-05-22T10:29:34.184Z,10.57
2023-05-22T10:32:20.432Z,12.02
2023-05-22T10:35:16.647Z,11.30
2023-05-22T10:37:56.584Z,10.57
2023-05-22T10:40:31.781Z,11.35
2023-05-22T10:42:59.875Z,11.30
2023-05-22T10:45:28.996Z,11.07
2023-05-22T10:48:06.933Z,11.77
2023-05-22T10:53:22.417Z,11.27
2023-05-22T10:55:49.910Z,10.80
2023-05-22T10:58:17.944Z,12.40
2023-05-22T11:00:47.729Z,10.70
2023-05-22T11:03:18.314Z,10.27
2023-05-22T11:05:53.410Z,10.98
2023-05-22T11:08:26.174Z,13.02
2023-05-22T11:10:53.739Z,10.63
2023-05-22T11:13:20.695Z,11.20
2023-05-22T11:15:48.388Z,11.30
2023-05-22T11:18:16.811Z,11.73
2023-05-22T11:20:44.377Z,10.82
2023-05-22T11:23:11.410Z,12.65
2023-05-22T11:25:41.062Z,10.43
2023-05-22T11:28:08.032Z,11.90
2023-05-22T11:30:35.064Z,11.18
2023-05-22T11:33:02.686Z,10.80
2023-05-22T11:35:29.637Z,11.55
2023-05-22T11:37:56.873Z,11.45
2023-05-22T11:40:27.040Z,11.30
2023-05-22T11:42:53.970Z,11.45
2023-05-22T11:45:21.483Z,10.57
2023-05-22T11:47:51.308Z,13.93
2023-05-22T11:50:29.237Z,10.05
2023-05-22T11:53:01.696Z,10.95
2023-05-22T11:55:28.364Z,12.88
2023-05-22T11:57:56.501Z,11.80
2023-05-22T12:00:23.377Z,13.30
2023-05-22T12:02:50.337Z,12.68
2023-05-22T12:05:17.195Z,12.85
2023-05-22T12:07:44.164Z,11.45
2023-05-22T12:10:11.311Z,11.70
2023-05-22T12:12:38.935Z,13.25
2023-05-22T12:15:07.355Z,11.23
2023-05-22T12:17:37.644Z,12.07
2023-05-22T12:20:05.741Z,10.60
2023-05-22T12:22:32.570Z,11.43
2023-05-22T12:24:59.341Z,9.43
2023-05-22T12:27:33.038Z,9.32
2023-05-22T12:30:08.318Z,9.38
2023-05-22T12:32:35.256Z,9.85
2023-05-22T12:35:01.981Z,9.43
2023-05-22T12:37:28.905Z,9.80
2023-05-22T12:39:57.482Z,10.77
2023-05-22T12:42:25.776Z,10.02
2023-05-22T12:44:57.154Z,9.95
2023-05-22T12:47:24.880Z,13.00
2023-05-22T12:49:51.930Z,9.88
2023-05-22T12:52:18.906Z,10.18
2023-05-22T12:54:46.119Z,11.07
2023-05-22T12:57:12.879Z,10.38
2023-05-22T12:59:39.572Z,11.25
2023-05-22T13:02:06.623Z,11.13
2023-05-22T13:04:33.621Z,11.05
2023-05-22T13:07:00.653Z,9.55
2023-05-22T13:09:27.456Z,10.55
2023-05-22T13:11:54.790Z,9.95
2023-05-22T13:14:21.581Z,11.40
2023-05-22T13:16:48.331Z,10.63
2023-05-22T13:19:15.157Z,10.73
2023-05-22T13:21:42.800Z,10.18
2023-05-22T13:24:09.492Z,9.85
2023-05-22T13:26:36.153Z,10.52
2023-05-22T13:29:02.883Z,11.25
2023-05-22T13:31:29.625Z,8.80
2023-05-22T13:33:56.446Z,9.55
2023-05-22T13:36:23.282Z,10.82
2023-05-22T13:38:50.027Z,9.30
2023-05-22T13:41:17.782Z,9.32
2023-05-22T13:43:44.578Z,11.38
2023-05-22T13:46:11.383Z,10.40
2023-05-22T13:48:38.718Z,10.57
2023-05-22T13:51:05.593Z,9.40
2023-05-22T13:53:32.323Z,10.07
2023-05-22T13:55:59.040Z,10.32
2023-05-22T13:58:25.830Z,9.73
2023-05-22T14:00:52.583Z,9.23
2023-05-22T14:03:19.365Z,9.40
2023-05-22T14:05:46.153Z,11.20
2023-05-22T14:08:13.397Z,8.88
2023-05-22T14:10:40.443Z,9.23
2023-05-22T14:13:08.599Z,8.45
2023-05-22T14:15:35.411Z,9.48
2023-05-22T14:18:02.187Z,9.25
2023-05-22T14:20:28.871Z,8.55
2023-05-22T14:22:57.713Z,9.52
2023-05-22T14:25:26.177Z,9.70
2023-05-22T14:27:53.069Z,8.98
2023-05-22T14:30:19.821Z,8.63
2023-05-22T14:32:46.859Z,10.02
2023-05-22T14:35:13.835Z,10.00
2023-05-22T14:37:40.621Z,9.23
2023-05-22T14:40:08.204Z,10.05
2023-05-22T14:42:35.702Z,10.18
2023-05-22T14:45:03.823Z,10.15
2023-05-22T14:47:30.662Z,10.18
2023-05-22T14:50:03.087Z,10.45
2023-05-22T14:52:41.362Z,9.77
2023-05-22T14:55:08.574Z,9.40
2023-05-22T14:57:35.351Z,9.57
2023-05-22T15:00:02.200Z,11.73
2023-05-22T15:02:28.960Z,11.63
2023-05-22T15:04:56.089Z,11.13
2023-05-22T15:07:29.257Z,12.60
2023-05-22T15:10:02.409Z,11.82
2023-05-22T15:12:29.160Z,11.90
2023-05-22T15:14:55.919Z,10.32
2023-05-22T15:17:22.738Z,13.20
2023-05-22T15:19:49.723Z,13.85
2023-05-22T15:22:19.910Z,14.00
2023-05-22T15:25:04.316Z,11.70
2023-05-22T15:27:31.364Z,13.52
2023-05-22T15:29:58.110Z,11.75
2023-05-22T15:32:24.834Z,11.75
2023-05-22T15:34:52.358Z,11.40
2023-05-22T15:37:19.332Z,11.82
2023-05-22T15:39:46.100Z,11.68
2023-05-22T15:42:12.868Z,10.90
2023-05-22T15:44:39.623Z,10.77
2023-05-22T15:47:06.476Z,11.20
2023-05-22T15:49:33.158Z,10.05
2023-05-22T15:51:59.879Z,8.68
2023-05-22T15:54:26.611Z,9.23
2023-05-22T15:56:53.381Z,9.07
2023-05-22T15:59:20.285Z,8.80
2023-05-22T16:01:47.281Z,8.32
2023-05-22T16:04:14.098Z,8.05
2023-05-22T16:06:40.982Z,9.77
2023-05-22T16:09:08.092Z,8.93
2023-05-22T16:11:34.892Z,7.55
2023-05-22T16:14:01.626Z,8.00
2023-05-22T16:16:28.517Z,9.02
2023-05-22T16:18:55.566Z,11.93
2023-05-22T16:21:22.367Z,9.45
2023-05-22T16:23:49.118Z,9.20
2023-05-22T16:26:16.087Z,9.65
2023-05-22T16:28:42.834Z,10.43
2023-05-22T16:31:09.700Z,9.57
2023-05-22T16:33:37.478Z,8.63
2023-05-22T16:36:04.624Z,8.02
2023-05-22T16:38:31.461Z,7.90
2023-05-22T16:40:58.618Z,9.63
2023-05-22T16:43:25.400Z,9.90
2023-05-22T16:45:52.200Z,8.27
2023-05-22T16:48:19.243Z,7.72
2023-05-22T16:50:46.703Z,9.57
2023-05-22T16:53:16.599Z,9.02
2023-05-22T16:55:43.562Z,9.93
2023-05-22T16:58:11.685Z,8.75
2023-05-22T17:00:40.153Z,8.73
2023-05-22T17:03:08.437Z,8.75
2023-05-22T17:05:36.600Z,9.05
2023-05-22T17:08:03.743Z,8.50
2023-05-22T17:10:30.491Z,9.80
2023-05-22T17:12:57.301Z,9.63
2023-05-22T17:15:24.200Z,9.40
2023-05-22T17:17:51.324Z,9.82
2023-05-22T17:20:18.296Z,7.30
2023-05-22T17:22:45.008Z,7.38
2023-05-22T17:25:11.752Z,11.20
2023-05-22T17:27:38.551Z,9.32
2023-05-22T17:30:06.957Z,9.10
2023-05-22T17:32:34.599Z,8.85
2023-05-22T17:35:06.365Z,9.07
2023-05-22T17:37:34.159Z,9.00
2023-05-22T17:40:00.990Z,9.00
2023-05-22T17:42:27.718Z,9.50
2023-05-22T17:44:54.496Z,8.55
2023-05-22T17:47:21.350Z,8.05
2023-05-22T17:49:48.355Z,9.63
2023-05-22T17:52:15.173Z,7.93
2023-05-22T17:54:43.732Z,9.40
2023-05-22T17:57:10.616Z,9.98
2023-05-22T17:59:39.874Z,9.85
2023-05-22T18:02:07.676Z,10.25
2023-05-22T18:04:34.348Z,9.38
2023-05-22T18:07:01.435Z,9.70
2023-05-22T18:09:28.223Z,11.35
2023-05-22T18:11:55.051Z,9.02
2023-05-22T18:14:21.756Z,8.45
2023-05-22T18:16:48.558Z,10.98
2023-05-22T18:19:15.383Z,9.27
2023-05-22T18:21:43.082Z,8.80
2023-05-22T18:24:09.939Z,8.77
2023-05-22T18:26:36.685Z,8.85
2023-05-22T18:29:03.414Z,9.30
2023-05-22T18:31:30.685Z,9.90
2023-05-22T18:33:57.474Z,11.38
2023-05-22T18:36:24.321Z,9.52
2023-05-22T18:38:51.162Z,10.02
2023-05-22T18:41:17.836Z,9.65
2023-05-22T18:43:44.578Z,11.65
2023-05-22T18:46:11.351Z,13.52
2023-05-22T18:48:38.094Z,12.52
2023-05-22T18:51:04.936Z,10.05
2023-05-22T18:53:31.781Z,10.13
2023-05-22T18:55:58.524Z,9.45
2023-05-22T18:58:25.577Z,10.85
2023-05-22T19:00:55.269Z,11.25
2023-05-22T19:03:22.166Z,9.82
2023-05-22T19:05:48.905Z,10.57
2023-05-22T19:08:15.770Z,11.52
2023-05-22T19:10:42.750Z,10.07
2023-05-22T19:13:09.703Z,10.35
2023-05-22T19:15:37.562Z,9.93
2023-05-22T19:18:04.492Z,11.43
2023-05-22T19:20:31.270Z,11.70
2023-05-22T19:22:58.424Z,11.13
2023-05-22T19:25:25.245Z,10.20
2023-05-22T19:27:52.223Z,9.82
2023-05-22T19:30:19.165Z,9.73
2023-05-22T19:32:46.826Z,9.75
2023-05-22T19:35:13.665Z,11.45
2023-05-22T19:37:40.419Z,11.65
2023-05-22T19:40:09.588Z,10.80
2023-05-22T19:42:38.808Z,10.07
2023-05-22T19:45:06.189Z,10.13
2023-05-22T19:47:32.899Z,10.85
2023-05-22T19:49:59.792Z,13.18
2023-05-22T19:52:26.764Z,10.90
2023-05-22T19:54:53.604Z,10.75
2023-05-22T19:57:20.456Z,11.35
2023-05-22T19:59:47.213Z,9.85
2023-05-22T20:02:13.909Z,9.80
2023-05-22T20:04:43.598Z,9.38
2023-05-22T20:07:10.726Z,9.60
2023-05-22T20:09:37.561Z,10.80
2023-05-22T20:12:04.474Z,10.75
2023-05-22T20:14:31.278Z,9.35
2023-05-22T20:16:59.253Z,9.98
2023-05-22T20:19:27.509Z,9.77
2023-05-22T20:21:54.417Z,12.15
2023-05-22T20:24:21.165Z,10.15
2023-05-22T20:26:48.195Z,11.65
2023-05-22T20:29:15.330Z,9.63
2023-05-22T20:31:42.420Z,10.55
2023-05-22T20:34:09.575Z,10.98
2023-05-22T20:36:36.632Z,10.15
2023-05-22T20:39:03.767Z,11.68
2023-05-22T20:41:30.553Z,10.10
2023-05-22T20:43:58.686Z,11.02
2023-05-22T20:46:26.706Z,12.98
2023-05-22T20:48:54.020Z,11.30
2023-05-22T20:51:21.588Z,9.65
2023-05-22T20:53:49.649Z,10.05
2023-05-22T20:56:16.540Z,11.57
2023-05-22T20:58:43.220Z,9.80
2023-05-22T21:01:09.989Z,9.32
2023-05-22T21:03:36.708Z,9.43
2023-05-22T21:06:03.563Z,8.77
2023-05-22T21:08:30.549Z,9.52
2023-05-22T21:10:57.297Z,11.27
2023-05-22T21:13:24.019Z,9.52
2023-05-22T21:15:50.763Z,9.18
2023-05-22T21:18:19.733Z,10.70
2023-05-22T21:20:46.648Z,13.05
2023-05-22T21:23:13.378Z,10.32
2023-05-22T21:25:40.114Z,10.93
2023-05-22T21:28:07.767Z,10.93
2023-05-22T21:30:34.523Z,10.32
2023-05-22T21:33:01.373Z,10.90
2023-05-22T21:35:28.282Z,10.30
2023-05-22T21:37:54.972Z,8.80
2023-05-22T21:40:21.652Z,11.82
2023-05-22T21:42:48.320Z,10.32
2023-05-22T21:45:15.234Z,12.38
2023-05-22T21:47:42.027Z,11.02
2023-05-22T21:50:09.142Z,9.13
2023-05-22T21:52:35.871Z,8.18
2023-05-22T21:55:02.747Z,9.35
2023-05-22T21:57:29.864Z,8.63
2023-05-22T21:59:56.554Z,9.00
2023-05-22T22:02:23.345Z,10.45
2023-05-22T22:04:50.208Z,10.52
2023-05-22T22:07:16.952Z,8.57
2023-05-22T22:09:43.708Z,9.05
2023-05-22T22:12:10.516Z,8.77
2023-05-22T22:14:37.323Z,9.32
2023-05-22T22:17:05.974Z,9.38
2023-05-22T22:19:34.433Z,9.02
2023-05-22T22:22:01.926Z,10.00
2023-05-22T22:24:29.611Z,9.65
2023-05-22T22:26:56.719Z,13.85
2023-05-22T22:29:23.517Z,10.43
2023-05-22T22:31:50.423Z,9.82
2023-05-22T22:34:17.281Z,11.43
2023-05-22T22:36:44.218Z,10.38
2023-05-22T22:39:11.196Z,11.25
2023-05-22T22:41:37.881Z,11.02
2023-05-22T22:44:04.749Z,9.75
2023-05-22T22:46:32.171Z,11.40
2023-05-22T22:49:01.684Z,10.50
2023-05-22T22:51:31.884Z,15.32
2023-05-22T22:53:58.645Z,11.77
2023-05-22T22:56:29.261Z,10.82
2023-05-22T22:58:57.140Z,10.40
2023-05-22T23:01:24.282Z,12.25
2023-05-22T23:03:51.510Z,9.68
2023-05-22T23:06:18.495Z,11.32
2023-05-22T23:08:45.706Z,10.60
2023-05-22T23:11:12.492Z,10.98
2023-05-22T23:13:41.146Z,10.88
2023-05-22T23:16:08.279Z,12.77
2023-05-22T23:18:35.293Z,11.82
2023-05-22T23:21:02.066Z,10.75
2023-05-22T23:23:28.918Z,10.48
2023-05-22T23:25:58.063Z,10.05
2023-05-22T23:28:25.846Z,12.15
2023-05-22T23:30:52.886Z,11.02
2023-05-22T23:33:19.758Z,9.82
2023-05-22T23:35:46.619Z,12.75
2023-05-22T23:38:13.352Z,10.65
2023-05-22T23:40:40.076Z,12.57
2023-05-22T23:43:06.912Z,12.63
2023-05-22T23:45:33.604Z,11.57
2023-05-22T23:48:00.377Z,11.88
2023-05-22T23:50:27.080Z,11.52
2023-05-22T23:52:54.153Z,10.15
2023-05-22T23:55:20.993Z,13.13
2023-05-22T23:57:47.717Z,13.65
